Terminal Aerodrome Forecast
Issued by NWS

Current Version | Previous Version | Text Only | Print | Product List | Glossary On
Versions: 1 2 3 4 5 6 7 8 9 10 11 12 13 14 15 16 17 18 19
000
FTUS42 KTAE 271443 AAB
TAFECP
TAF AMD
KECP 271443Z 2715/2812 VRB03KT P6SM SCT010
     FM271600 18010KT P6SM SCT040
     FM280000 19006KT P6SM OVC250
     FM280600 00000KT 1/2SM FG OVC002=

USA.gov is the U.S. government's official web portal to all federal, state and local government web resources and services.